createdAt,value
2017-08-24T00:00:25.329Z,17.60
2017-08-24T00:02:54.307Z,17.50
2017-08-24T00:05:23.274Z,18.60
2017-08-24T00:07:52.282Z,17.40
2017-08-24T00:10:21.258Z,17.30
2017-08-24T00:12:50.201Z,17.20
2017-08-24T00:15:19.212Z,17.30
2017-08-24T00:17:48.149Z,17.30
2017-08-24T00:20:17.092Z,17.30
2017-08-24T00:22:46.065Z,17.30
2017-08-24T00:25:15.114Z,17.30
2017-08-24T00:27:44.084Z,17.30
2017-08-24T00:30:13.034Z,17.30
2017-08-24T00:32:41.985Z,17.30
2017-08-24T00:35:10.972Z,17.30
2017-08-24T00:37:40.090Z,17.30
2017-08-24T00:40:09.072Z,17.50
2017-08-24T00:42:38.045Z,17.50
2017-08-24T00:45:07.791Z,17.60
2017-08-24T00:47:36.774Z,17.50
2017-08-24T00:50:05.761Z,17.50
2017-08-24T00:52:34.701Z,17.40
2017-08-24T00:55:04.675Z,17.50
2017-08-24T00:57:33.624Z,17.50
2017-08-24T01:00:02.609Z,17.50
2017-08-24T01:02:31.561Z,17.50
2017-08-24T01:05:00.505Z,17.50
2017-08-24T01:07:29.472Z,17.40
2017-08-24T01:09:58.430Z,17.40
2017-08-24T01:12:27.742Z,17.50
2017-08-24T01:14:56.684Z,17.40
2017-08-24T01:17:26.529Z,17.40
2017-08-24T01:19:55.487Z,17.40
2017-08-24T01:22:24.566Z,17.50
2017-08-24T01:24:53.496Z,17.30
2017-08-24T01:27:22.475Z,17.30
2017-08-24T01:29:51.487Z,17.30
2017-08-24T01:32:20.488Z,17.40
2017-08-24T01:34:49.476Z,17.40
2017-08-24T01:37:18.547Z,17.30
2017-08-24T01:39:47.495Z,17.40
2017-08-24T01:42:16.770Z,17.50
2017-08-24T01:44:45.713Z,17.70
2017-08-24T01:47:15.521Z,17.60
2017-08-24T01:49:44.489Z,17.60
2017-08-24T01:52:13.625Z,17.70
2017-08-24T01:54:42.738Z,17.70
2017-08-24T01:57:11.675Z,17.70
2017-08-24T01:59:40.744Z,17.60
2017-08-24T02:02:09.730Z,17.50
2017-08-24T02:04:38.694Z,17.60
2017-08-24T02:07:07.702Z,17.50
2017-08-24T02:09:36.741Z,17.40
2017-08-24T02:12:05.684Z,17.40
2017-08-24T02:14:34.679Z,17.40
2017-08-24T02:17:03.648Z,17.40
2017-08-24T02:19:32.630Z,17.50
2017-08-24T02:22:01.602Z,17.50
2017-08-24T02:24:32.772Z,17.50
2017-08-24T02:27:02.912Z,17.60
2017-08-24T02:29:31.879Z,17.50
2017-08-24T02:32:00.896Z,17.30
2017-08-24T02:34:29.902Z,17.10
2017-08-24T02:36:58.892Z,16.80
2017-08-24T02:39:27.889Z,16.80
2017-08-24T02:41:56.887Z,16.70
2017-08-24T02:44:26.645Z,16.70
2017-08-24T02:46:55.584Z,16.60
2017-08-24T02:49:24.552Z,16.70
2017-08-24T02:51:53.517Z,16.70
2017-08-24T02:54:22.517Z,16.70
2017-08-24T02:56:51.461Z,16.50
2017-08-24T02:59:20.484Z,16.60
2017-08-24T03:01:49.453Z,16.70
2017-08-24T03:04:18.387Z,16.70
2017-08-24T03:06:47.361Z,16.80
2017-08-24T03:09:17.090Z,16.70
2017-08-24T03:11:46.042Z,16.70
2017-08-24T03:14:15.232Z,16.70
2017-08-24T03:16:44.186Z,16.60
2017-08-24T03:19:13.179Z,16.50
2017-08-24T03:21:42.126Z,16.30
2017-08-24T03:24:11.109Z,16.20
2017-08-24T03:26:40.084Z,16.10
2017-08-24T03:29:09.054Z,15.90
2017-08-24T03:31:38.094Z,15.80
2017-08-24T03:34:07.046Z,15.80
2017-08-24T03:36:36.022Z,15.80
2017-08-24T03:39:05.011Z,16.00
2017-08-24T03:41:33.986Z,16.10
2017-08-24T03:44:02.929Z,16.20
2017-08-24T03:46:31.926Z,16.30
2017-08-24T03:49:00.913Z,16.40
2017-08-24T03:51:29.909Z,16.50
2017-08-24T03:53:58.882Z,16.60
2017-08-24T03:56:27.869Z,16.50
2017-08-24T03:58:56.814Z,16.60
2017-08-24T04:01:25.774Z,16.60
2017-08-24T04:03:54.752Z,16.70
2017-08-24T04:06:23.721Z,16.80
2017-08-24T04:08:52.707Z,16.90
2017-08-24T04:11:21.674Z,16.90
2017-08-24T04:13:50.655Z,17.00
2017-08-24T04:16:19.634Z,17.10
2017-08-24T04:18:48.691Z,17.10
2017-08-24T04:21:17.681Z,17.10
2017-08-24T04:23:46.660Z,17.10
2017-08-24T04:26:15.704Z,17.10
2017-08-24T04:28:47.749Z,17.00
2017-08-24T04:31:17.024Z,17.00
2017-08-24T04:33:46.037Z,17.00
2017-08-24T04:36:15.040Z,17.10
2017-08-24T04:38:44.065Z,17.20
2017-08-24T04:41:13.054Z,17.20
2017-08-24T04:43:42.143Z,17.30
2017-08-24T04:46:11.114Z,17.30
2017-08-24T04:48:40.080Z,17.40
2017-08-24T04:51:09.061Z,17.50
2017-08-24T04:53:38.101Z,17.60
2017-08-24T04:56:07.080Z,17.60
2017-08-24T04:58:36.097Z,17.70
2017-08-24T05:01:05.097Z,17.70
2017-08-24T05:03:34.239Z,17.70
2017-08-24T05:06:03.224Z,17.60
2017-08-24T05:08:32.192Z,17.70
2017-08-24T05:11:01.189Z,17.70
2017-08-24T05:13:30.145Z,17.80
2017-08-24T05:15:59.132Z,17.70
2017-08-24T05:18:28.112Z,17.90
2017-08-24T05:20:57.108Z,17.90
2017-08-24T05:23:26.097Z,18.00
2017-08-24T05:25:55.113Z,18.00
2017-08-24T05:28:24.088Z,18.00
2017-08-24T05:30:53.037Z,17.90
2017-08-24T05:33:22.042Z,17.90
2017-08-24T05:35:51.138Z,18.00
2017-08-24T05:38:20.125Z,18.00
2017-08-24T05:40:49.087Z,18.00
2017-08-24T05:43:18.060Z,18.00
2017-08-24T05:45:47.073Z,18.00
2017-08-24T05:48:16.069Z,18.10
2017-08-24T05:50:45.046Z,18.00
2017-08-24T05:53:14.037Z,18.00
2017-08-24T05:55:43.004Z,18.10
2017-08-24T05:58:13.391Z,18.00
2017-08-24T06:00:42.442Z,18.00
2017-08-24T06:03:11.494Z,18.10
2017-08-24T06:05:40.467Z,18.10
2017-08-24T06:08:09.438Z,18.10
2017-08-24T06:10:38.412Z,18.10
2017-08-24T06:13:07.404Z,18.20
2017-08-24T06:15:36.378Z,18.20
2017-08-24T06:18:05.417Z,18.20
2017-08-24T06:20:34.394Z,18.30
2017-08-24T06:23:03.397Z,18.40
2017-08-24T06:25:32.486Z,18.50
2017-08-24T06:28:01.507Z,18.50
2017-08-24T06:30:30.479Z,18.60
2017-08-24T06:32:59.465Z,18.60
2017-08-24T06:35:28.421Z,18.70
2017-08-24T06:37:57.461Z,18.80
2017-08-24T06:40:26.448Z,18.80
2017-08-24T06:42:55.413Z,18.80
2017-08-24T06:45:25.285Z,18.80
2017-08-24T06:47:54.309Z,18.90
2017-08-24T06:50:23.374Z,18.80
2017-08-24T06:52:52.338Z,18.80
2017-08-24T06:55:21.308Z,19.00
2017-08-24T06:57:50.287Z,19.20
2017-08-24T07:00:19.268Z,19.10
2017-08-24T07:02:48.283Z,18.90
2017-08-24T07:05:17.287Z,18.80
2017-08-24T07:07:46.252Z,18.90
2017-08-24T07:10:15.286Z,19.00
2017-08-24T07:12:44.271Z,19.20
2017-08-24T07:15:13.258Z,19.20
2017-08-24T07:17:42.258Z,19.30
2017-08-24T07:20:11.248Z,19.30
2017-08-24T07:22:40.255Z,19.40
2017-08-24T07:25:09.283Z,19.50
2017-08-24T07:27:38.283Z,19.50
2017-08-24T07:30:07.239Z,19.40
2017-08-24T07:32:36.268Z,19.60
2017-08-24T07:35:05.199Z,19.50
2017-08-24T07:37:34.200Z,19.60
2017-08-24T07:40:03.176Z,19.80
2017-08-24T07:42:32.230Z,19.50
2017-08-24T07:45:01.181Z,19.50
2017-08-24T07:47:30.286Z,19.70
2017-08-24T07:49:59.265Z,19.70
2017-08-24T07:52:28.258Z,20.00
2017-08-24T07:54:57.243Z,20.20
2017-08-24T07:57:26.299Z,20.00
2017-08-24T07:59:56.167Z,19.90
2017-08-24T08:02:25.132Z,20.00
2017-08-24T08:04:54.132Z,20.00
2017-08-24T08:07:23.088Z,20.00
2017-08-24T08:09:52.844Z,20.30
2017-08-24T08:12:21.826Z,20.30
2017-08-24T08:14:50.828Z,20.30
2017-08-24T08:17:19.793Z,20.30
2017-08-24T08:19:48.863Z,20.50
2017-08-24T08:22:17.888Z,20.40
2017-08-24T08:24:46.915Z,20.30
2017-08-24T08:27:15.859Z,20.10
2017-08-24T08:29:44.872Z,20.10
2017-08-24T08:32:13.876Z,20.30
2017-08-24T08:34:42.873Z,20.60
2017-08-24T08:37:11.838Z,20.60
2017-08-24T08:39:40.809Z,20.70
2017-08-24T08:42:09.824Z,20.50
2017-08-24T08:44:38.921Z,20.50
2017-08-24T08:47:07.936Z,20.50
2017-08-24T08:49:37.260Z,20.70
2017-08-24T08:52:06.440Z,20.90
2017-08-24T08:54:35.869Z,21.00
2017-08-24T08:57:04.870Z,21.00
2017-08-24T08:59:34.623Z,20.90
2017-08-24T09:02:03.640Z,20.90
2017-08-24T09:04:33.481Z,20.90
2017-08-24T09:07:03.657Z,20.90
2017-08-24T09:09:32.653Z,20.90
2017-08-24T09:12:01.623Z,21.00
2017-08-24T09:14:30.643Z,21.20
2017-08-24T09:17:00.653Z,21.00
2017-08-24T09:19:30.687Z,21.20
2017-08-24T09:22:00.489Z,21.50
2017-08-24T09:24:29.536Z,21.50
2017-08-24T09:26:58.665Z,21.60
2017-08-24T09:29:27.733Z,21.50
2017-08-24T09:31:56.782Z,21.60
2017-08-24T09:34:25.774Z,21.70
2017-08-24T09:36:54.851Z,22.00
2017-08-24T09:39:23.956Z,21.90
2017-08-24T09:41:53.033Z,22.20
2017-08-24T09:44:22.143Z,22.20
2017-08-24T09:46:51.202Z,22.50
2017-08-24T09:49:20.716Z,22.60
2017-08-24T09:51:49.757Z,22.20
2017-08-24T09:54:18.748Z,22.40
2017-08-24T09:56:47.866Z,22.60
2017-08-24T09:59:17.614Z,22.60
2017-08-24T10:01:47.125Z,22.60
2017-08-24T10:04:16.189Z,22.80
2017-08-24T10:06:46.095Z,22.70
2017-08-24T10:09:15.106Z,22.80
2017-08-24T10:11:44.124Z,22.90
2017-08-24T10:14:13.286Z,22.80
2017-08-24T10:16:42.282Z,23.30
2017-08-24T10:19:11.253Z,23.50
2017-08-24T10:21:40.997Z,23.70
2017-08-24T10:24:10.652Z,23.40
2017-08-24T10:26:39.749Z,23.40
2017-08-24T10:29:08.769Z,23.60
2017-08-24T10:31:38.366Z,23.40
2017-08-24T10:34:07.552Z,23.60
2017-08-24T10:36:36.568Z,23.30
2017-08-24T10:39:05.644Z,23.40
2017-08-24T10:41:34.608Z,23.60
2017-08-24T10:44:03.612Z,24.10
2017-08-24T10:46:32.686Z,24.10
2017-08-24T10:49:01.691Z,24.00
2017-08-24T10:51:30.775Z,24.10
2017-08-24T10:53:59.769Z,24.30
2017-08-24T10:56:28.754Z,24.40
2017-08-24T10:58:57.720Z,24.50
2017-08-24T11:01:26.740Z,24.20
2017-08-24T11:03:55.749Z,24.40
2017-08-24T11:06:26.482Z,24.40
2017-08-24T11:08:55.484Z,24.40
2017-08-24T11:11:25.289Z,24.40
2017-08-24T11:13:54.294Z,24.50
2017-08-24T11:16:23.297Z,24.10
2017-08-24T11:18:52.308Z,23.90
2017-08-24T11:21:21.277Z,23.70
2017-08-24T11:23:50.261Z,23.40
2017-08-24T11:26:19.450Z,23.30
2017-08-24T11:28:48.442Z,23.00
2017-08-24T11:31:17.450Z,22.90
2017-08-24T11:33:47.178Z,22.50
2017-08-24T11:36:16.253Z,22.50
2017-08-24T11:38:45.872Z,22.40
2017-08-24T11:41:14.882Z,22.40
2017-08-24T11:43:43.901Z,23.10
2017-08-24T11:46:12.910Z,23.50
2017-08-24T11:48:41.851Z,24.20
2017-08-24T11:51:10.840Z,24.80
2017-08-24T11:53:39.792Z,25.20
2017-08-24T11:56:08.778Z,25.70
2017-08-24T11:58:37.743Z,26.00
2017-08-24T12:01:06.745Z,26.40
2017-08-24T12:03:35.791Z,26.60
2017-08-24T12:06:04.804Z,26.10
2017-08-24T12:08:33.859Z,26.20
2017-08-24T12:11:02.881Z,26.30
2017-08-24T12:13:31.951Z,26.70
2017-08-24T12:16:00.979Z,26.40
2017-08-24T12:18:30.093Z,26.30
2017-08-24T12:20:59.079Z,26.10
2017-08-24T12:23:28.109Z,26.40
2017-08-24T12:25:57.179Z,27.00
2017-08-24T12:28:26.159Z,27.30
2017-08-24T12:30:55.215Z,26.60
2017-08-24T12:33:24.416Z,26.10
2017-08-24T12:35:53.875Z,25.80
2017-08-24T12:38:23.612Z,25.70
2017-08-24T12:40:52.613Z,26.20
2017-08-24T12:43:21.830Z,27.00
2017-08-24T12:45:50.796Z,27.10
2017-08-24T12:48:19.746Z,27.40
2017-08-24T12:50:48.722Z,27.00
2017-08-24T12:53:17.674Z,27.10
2017-08-24T12:55:46.703Z,27.60
2017-08-24T12:58:15.713Z,27.50
2017-08-24T13:00:44.686Z,28.10
2017-08-24T13:03:13.659Z,28.40
2017-08-24T13:05:42.618Z,28.80
2017-08-24T13:08:11.632Z,29.60
2017-08-24T13:10:40.734Z,30.00
2017-08-24T13:13:09.704Z,30.10
2017-08-24T13:15:38.706Z,30.10
2017-08-24T13:18:07.681Z,30.10
2017-08-24T13:20:36.678Z,29.80
2017-08-24T13:23:05.648Z,29.20
2017-08-24T13:25:35.035Z,29.70
2017-08-24T13:28:04.172Z,30.00
2017-08-24T13:30:33.136Z,29.70
2017-08-24T13:33:02.124Z,28.90
2017-08-24T13:35:31.099Z,28.80
2017-08-24T13:38:00.103Z,29.20
2017-08-24T13:40:29.110Z,29.30
2017-08-24T13:42:58.146Z,29.50
2017-08-24T13:45:27.122Z,29.50
2017-08-24T13:47:56.106Z,29.30
2017-08-24T13:50:25.090Z,29.40
2017-08-24T13:52:54.073Z,29.70
2017-08-24T13:55:23.077Z,30.10
2017-08-24T13:57:52.036Z,30.20
2017-08-24T14:00:20.983Z,30.40
2017-08-24T14:02:49.980Z,30.50
2017-08-24T14:05:18.947Z,31.10
2017-08-24T14:07:47.952Z,31.30
2017-08-24T14:10:16.917Z,29.90
2017-08-24T14:12:45.884Z,29.80
2017-08-24T14:15:14.849Z,30.10
2017-08-24T14:17:44.608Z,30.30
2017-08-24T14:20:13.742Z,30.30
2017-08-24T14:22:42.740Z,30.40
2017-08-24T14:25:12.411Z,30.70
2017-08-24T14:27:41.470Z,30.00
2017-08-24T14:30:10.493Z,29.10
2017-08-24T14:32:39.503Z,27.60
2017-08-24T14:35:08.532Z,26.80
2017-08-24T14:37:37.669Z,26.70
2017-08-24T14:40:06.631Z,26.60
2017-08-24T14:42:35.656Z,26.40
2017-08-24T14:45:04.611Z,26.00
2017-08-24T14:47:33.607Z,25.90
2017-08-24T14:50:02.665Z,25.50
2017-08-24T14:52:31.792Z,25.40
2017-08-24T14:55:00.765Z,25.00
2017-08-24T14:57:29.755Z,24.40
2017-08-24T14:59:59.470Z,24.10
2017-08-24T15:02:28.494Z,24.00
2017-08-24T15:04:57.460Z,24.10
2017-08-24T15:07:26.494Z,24.10
2017-08-24T15:09:55.445Z,24.10
2017-08-24T15:12:24.464Z,24.10
2017-08-24T15:14:53.425Z,24.20
2017-08-24T15:17:22.413Z,24.10
2017-08-24T15:19:52.233Z,23.90
2017-08-24T15:22:21.473Z,23.80
2017-08-24T15:24:50.496Z,23.90
2017-08-24T15:27:19.464Z,23.80
2017-08-24T15:29:48.470Z,23.50
2017-08-24T15:32:18.097Z,23.40
2017-08-24T15:34:47.081Z,23.40
2017-08-24T15:37:16.029Z,23.40
2017-08-24T15:39:45.021Z,23.40
2017-08-24T15:42:13.990Z,23.40
2017-08-24T15:44:42.986Z,23.50
2017-08-24T15:47:11.929Z,23.40
2017-08-24T15:49:40.954Z,23.40
2017-08-24T15:52:09.915Z,23.50
2017-08-24T15:54:38.872Z,23.30
2017-08-24T15:57:07.851Z,23.20
2017-08-24T15:59:36.831Z,23.00
2017-08-24T16:02:05.918Z,22.70
2017-08-24T16:04:35.654Z,21.40
2017-08-24T16:07:04.630Z,21.30
2017-08-24T16:09:33.613Z,21.40
2017-08-24T16:12:03.486Z,22.10
2017-08-24T16:14:32.483Z,22.10
2017-08-24T16:17:01.435Z,22.20
2017-08-24T16:19:30.437Z,22.50
2017-08-24T16:21:59.411Z,22.60
2017-08-24T16:24:28.373Z,22.50
2017-08-24T16:26:57.360Z,22.20
2017-08-24T16:29:26.366Z,22.10
2017-08-24T16:31:55.343Z,22.00
2017-08-24T16:34:24.322Z,21.90
2017-08-24T16:36:53.259Z,21.90
2017-08-24T16:39:22.244Z,22.00
2017-08-24T16:41:51.211Z,22.00
2017-08-24T16:44:20.219Z,22.00
2017-08-24T16:46:49.943Z,21.60
2017-08-24T16:49:19.026Z,21.60
2017-08-24T16:51:48.016Z,21.50
2017-08-24T16:54:16.989Z,21.50
2017-08-24T16:56:45.951Z,21.40
2017-08-24T16:59:14.944Z,21.30
2017-08-24T17:01:43.927Z,21.30
2017-08-24T17:04:12.910Z,21.30
2017-08-24T17:06:42.711Z,21.40
2017-08-24T17:09:11.705Z,21.30
2017-08-24T17:11:40.685Z,21.50
2017-08-24T17:14:09.676Z,21.20
2017-08-24T17:16:38.638Z,21.20
2017-08-24T17:19:07.692Z,21.10
2017-08-24T17:21:36.674Z,21.00
2017-08-24T17:24:05.663Z,21.10
2017-08-24T17:26:34.624Z,21.00
2017-08-24T17:29:03.671Z,21.00
2017-08-24T17:31:32.608Z,21.20
2017-08-24T17:34:01.566Z,21.20
2017-08-24T17:36:30.598Z,21.00
2017-08-24T17:38:59.577Z,20.80
2017-08-24T17:41:28.549Z,20.80
2017-08-24T17:43:57.532Z,21.00
2017-08-24T17:46:26.504Z,21.00
2017-08-24T17:48:55.496Z,21.10
2017-08-24T17:51:24.457Z,21.10
2017-08-24T17:53:54.199Z,21.00
2017-08-24T17:56:23.147Z,20.90
2017-08-24T17:58:52.162Z,20.90
2017-08-24T18:01:21.139Z,21.00
2017-08-24T18:03:50.142Z,20.90
2017-08-24T18:06:19.135Z,20.80
2017-08-24T18:08:48.101Z,20.70
2017-08-24T18:11:17.206Z,20.70
2017-08-24T18:13:46.182Z,20.60
2017-08-24T18:16:15.136Z,20.60
2017-08-24T18:18:44.118Z,20.50
2017-08-24T18:21:13.100Z,20.50
2017-08-24T18:23:42.085Z,20.40
2017-08-24T18:26:11.058Z,20.30
2017-08-24T18:28:40.044Z,20.20
2017-08-24T18:31:09.005Z,20.10
2017-08-24T18:33:38.015Z,20.10
2017-08-24T18:36:07.022Z,20.10
2017-08-24T18:38:36.016Z,20.10
2017-08-24T18:41:04.971Z,20.00
2017-08-24T18:43:33.921Z,20.00
2017-08-24T18:46:02.917Z,20.00
2017-08-24T18:48:31.882Z,19.90
2017-08-24T18:51:00.881Z,19.80
2017-08-24T18:53:29.841Z,19.80
2017-08-24T18:55:58.833Z,19.80
2017-08-24T18:58:27.794Z,19.80
2017-08-24T19:00:56.784Z,19.80
2017-08-24T19:03:25.741Z,19.80
2017-08-24T19:05:54.838Z,19.80
2017-08-24T19:08:23.893Z,19.80
2017-08-24T19:10:52.893Z,19.80
2017-08-24T19:13:22.008Z,19.70
2017-08-24T19:15:51.005Z,19.60
2017-08-24T19:18:19.979Z,19.50
2017-08-24T19:20:48.959Z,19.40
2017-08-24T19:23:18.182Z,19.30
2017-08-24T19:25:47.164Z,19.20
2017-08-24T19:28:16.144Z,19.00
2017-08-24T19:30:45.212Z,19.00
2017-08-24T19:33:14.412Z,19.00
2017-08-24T19:35:43.428Z,18.80
2017-08-24T19:38:12.450Z,18.90
2017-08-24T19:40:41.439Z,18.80
2017-08-24T19:43:10.922Z,18.70
2017-08-24T19:45:39.928Z,18.60
2017-08-24T19:48:08.887Z,18.60
2017-08-24T19:50:37.915Z,18.60
2017-08-24T19:53:06.913Z,18.50
2017-08-24T19:55:35.904Z,18.40
2017-08-24T19:58:04.933Z,18.40
2017-08-24T20:00:33.906Z,18.30
2017-08-24T20:03:03.217Z,18.20
2017-08-24T20:05:32.206Z,18.20
2017-08-24T20:08:01.166Z,18.30
2017-08-24T20:10:30.150Z,18.20
2017-08-24T20:12:59.112Z,18.20
2017-08-24T20:15:28.116Z,18.10
2017-08-24T20:17:57.854Z,18.00
2017-08-24T20:20:27.591Z,17.90
2017-08-24T20:22:56.894Z,17.90
2017-08-24T20:25:25.902Z,18.00
2017-08-24T20:27:54.956Z,17.90
2017-08-24T20:30:23.947Z,17.90
2017-08-24T20:32:52.898Z,17.80
2017-08-24T20:35:21.878Z,17.70
2017-08-24T20:37:50.853Z,17.70
2017-08-24T20:40:20.168Z,17.70
2017-08-24T20:42:49.120Z,17.70
2017-08-24T20:45:18.198Z,17.70
2017-08-24T20:47:59.139Z,17.60
2017-08-24T20:50:30.394Z,17.60
2017-08-24T20:52:59.336Z,17.60
2017-08-24T20:55:28.316Z,17.50
2017-08-24T20:57:57.277Z,17.50
2017-08-24T21:00:26.272Z,17.40
2017-08-24T21:02:55.237Z,17.40
2017-08-24T21:05:24.192Z,17.40
2017-08-24T21:07:53.154Z,17.50
2017-08-24T21:10:22.128Z,17.40
2017-08-24T21:12:51.065Z,17.50
2017-08-24T21:15:20.223Z,17.40
2017-08-24T21:17:49.165Z,17.40
2017-08-24T21:20:18.146Z,17.30
2017-08-24T21:22:47.110Z,17.30
2017-08-24T21:25:16.357Z,17.20
2017-08-24T21:27:45.318Z,17.30
2017-08-24T21:30:14.456Z,17.20
2017-08-24T21:32:43.421Z,17.20
2017-08-24T21:35:12.486Z,17.20
2017-08-24T21:37:41.498Z,17.10
2017-08-24T21:40:10.463Z,17.10
2017-08-24T21:42:39.583Z,17.10
2017-08-24T21:45:08.596Z,17.00
2017-08-24T21:47:37.546Z,17.00
2017-08-24T21:50:08.201Z,16.90
2017-08-24T21:52:37.160Z,17.00
2017-08-24T21:55:06.152Z,17.00
2017-08-24T21:57:35.155Z,17.00
2017-08-24T22:00:04.318Z,16.90
2017-08-24T22:02:33.260Z,16.80
2017-08-24T22:05:02.270Z,16.80
2017-08-24T22:07:31.217Z,16.70
2017-08-24T22:10:00.173Z,16.70
2017-08-24T22:12:29.182Z,16.60
2017-08-24T22:14:58.264Z,16.60
2017-08-24T22:17:27.240Z,16.50
2017-08-24T22:19:57.369Z,16.60
2017-08-24T22:22:26.336Z,16.60
2017-08-24T22:24:55.329Z,16.60
2017-08-24T22:27:24.272Z,16.50
2017-08-24T22:29:53.269Z,16.60
2017-08-24T22:32:22.229Z,16.50
2017-08-24T22:34:51.175Z,16.40
2017-08-24T22:37:20.159Z,16.50
2017-08-24T22:39:49.113Z,16.30
2017-08-24T22:42:18.116Z,16.30
2017-08-24T22:44:47.066Z,16.40
2017-08-24T22:47:16.045Z,16.30
2017-08-24T22:49:45.008Z,16.30
2017-08-24T22:52:13.986Z,16.30
2017-08-24T22:54:48.549Z,16.20
2017-08-24T22:57:23.181Z,16.00
2017-08-24T22:59:58.038Z,16.00
2017-08-24T23:02:32.665Z,16.00
2017-08-24T23:05:02.959Z,16.00
2017-08-24T23:07:31.898Z,16.00
2017-08-24T23:10:00.892Z,16.10
2017-08-24T23:12:29.863Z,16.10
2017-08-24T23:14:58.830Z,16.10
2017-08-24T23:17:27.819Z,16.00
2017-08-24T23:19:57.545Z,15.80
2017-08-24T23:22:26.504Z,15.80
2017-08-24T23:24:55.456Z,15.80
2017-08-24T23:27:24.392Z,15.90
2017-08-24T23:29:54.256Z,15.80
2017-08-24T23:32:23.217Z,15.70
2017-08-24T23:34:52.186Z,15.50
2017-08-24T23:37:21.947Z,15.70
2017-08-24T23:39:51.575Z,15.70
2017-08-24T23:42:20.556Z,15.70
2017-08-24T23:44:49.610Z,15.60
2017-08-24T23:47:18.586Z,15.60
2017-08-24T23:49:47.934Z,15.50
2017-08-24T23:52:16.900Z,15.50
2017-08-24T23:54:45.864Z,15.50
2017-08-24T23:57:14.851Z,15.50
2017-08-24T23:59:44.573Z,15.50
